• Join FlightAware (Why Join?)
  • Login
  • US Flag 
Gobble Gobble! 
06:14AM EST


 

Airport Tracker/Info


-or-


 

Live Flight TrackerFlight Track Log ✈ ASA2 ✈ 24-Aug-2013 ✈ KSEA - KDCA

Flight Track Log - Related Links

Times and Time Zones

All times are in EDT time to prevent confusion due to time zone crossing. See the ASA2 flight status page for this flight to view local times or setup timezone preferences in your user account.

Time Position Orientation Groundspeed Altitude Reporting Facility
EDT Latitude Longitude Course Direction KTS MPH feet Rate Location/Type
05:07PM 47.4278 -122.3078 181° South 178 205 1,300  Level Seattle Center
05:08PM 47.3839 -122.3092 181° South 184 212 2,600 1,680 Climbing Seattle Center
05:09PM 47.3289 -122.3033 176° South 244 281 4,200 2,040 Climbing Seattle Center
05:10PM 47.3175 -122.2119 100° East 276 318 6,400 2,340 Climbing Seattle Center
05:11PM 47.3447 -122.0953 71° East 283 326 8,700 2,160 Climbing Seattle Center
05:12PM 47.3728 -121.9756 71° East 308 354 10,900 1,860 Climbing Seattle Center
05:13PM 47.4039 -121.8400 71° East 352 405 12,500 1,920 Climbing Seattle Center
05:14PM 47.4306 -121.6953 75° East 367 422 14,900 2,280 Climbing Seattle Center
05:15PM 47.4272 -121.5433 92° East 371 427 17,200 2,100 Climbing Seattle Center
05:16PM 47.4300 -121.4042 88° East 379 436 19,200 2,100 Climbing Seattle Center
05:17PM 47.4364 -121.2142 87° East 390 449 21,500 1,920 Climbing Seattle Center
05:18PM 47.4406 -121.0492 88° East 404 465 23,200 1,560 Climbing Seattle Center
05:19PM 47.4447 -120.8811 88° East 411 473 24,700 1,440 Climbing Seattle Center
05:20PM 47.4522 -120.7042 86° East 429 494 26,200 1,320 Climbing Seattle Center
05:21PM 47.4606 -120.5256 86° East 437 503 27,500 1,200 Climbing Seattle Center
05:22PM 47.4694 -120.3433 86° East 443 510 28,700 1,140 Climbing Seattle Center
05:23PM 47.4803 -120.1594 85° East 449 517 29,900 1,080 Climbing Seattle Center
05:24PM 47.4833 -119.9717 89° East 456 525 30,900 960 Climbing Seattle Center
05:25PM 47.4914 -119.7803 86° East 467 537 31,900 1,080 Climbing Seattle Center
05:26PM 47.4981 -119.5878 87° East 469 540 33,100 1,080 Climbing Seattle Center
05:27PM 47.5042 -119.3986 87° East 465 535 34,200 900 Climbing Seattle Center
05:28PM 47.5097 -119.1711 88° East 463 533 35,000 360 Climbing Seattle Center
05:29PM 47.5172 -118.9825 87° East 459 528 35,000  Level Seattle Center
05:30PM 47.5231 -118.7922 87° East 466 536 35,000  Level Seattle Center
05:31PM 47.5278 -118.6053 88° East 459 528 35,000  Level Seattle Center
05:32PM 47.5328 -118.4164 88° East 462 532 35,000  Level Seattle Center
05:33PM 47.5372 -118.2300 88° East 456 525 35,000  Level Seattle Center
05:34PM 47.5428 -118.0433 87° East 457 526 35,000  Level Seattle Center
05:35PM 47.5469 -117.8578 88° East 452 520 35,000  Level Seattle Center
05:36PM 47.5514 -117.6706 88° East 455 524 35,000  Level Seattle Center
05:37PM 47.5550 -117.4828 88° East 458 527 35,000  Level Seattle Center
05:38PM 47.5572 -117.2956 89° East 458 527 35,000  Level Seattle Center
05:39PM 47.5581 -117.0817 90° East 459 528 35,000  Level Seattle Center
05:40PM 47.5633 -116.8981 87° East 468 539 35,000  Level Seattle Center
05:41PM 47.5644 -116.7111 89° East 461 531 35,000  Level Seattle Center
05:42PM 47.5661 -116.5239 89° East 458 527 35,000  Level Seattle Center
05:43PM 47.5675 -116.3353 89° East 460 529 35,000  Level Seattle Center
05:44PM 47.5686 -116.1469 89° East 459 528 35,000  Level Seattle Center
05:45PM 47.5692 -115.9597 90° East 458 527 35,000  Level Seattle Center
05:46PM 47.5708 -115.7742 89° East 455 524 35,000  Level Seattle Center
05:47PM 47.5708 -115.5817 90° East 456 525 35,000  Level Seattle Center
05:48PM 47.5706 -115.3572 90° East 458 527 35,000  Level Seattle Center
05:49PM 47.5706 -115.1683 90° East 461 531 35,000  Level Seattle Center
05:50PM 47.5692 -114.9803 91° East 461 531 35,000  Level Seattle Center
05:51PM 47.5689 -114.7928 90° East 461 531 35,000  Level Seattle Center
05:52PM 47.5675 -114.6064 91° East 459 528 35,000  Level Seattle Center
05:53PM 47.5656 -114.4175 91° East 461 531 35,000  Level Seattle Center
05:54PM 47.5631 -114.2275 91° East 465 535 35,000  Level Seattle Center
05:55PM 47.5611 -114.0383 91° East 465 535 35,000  Level Seattle Center
05:56PM 47.5589 -113.8494 91° East 464 534 35,000  Level Seattle Center
05:57PM 47.5553 -113.6208 91° East 467 537 35,000  Level Seattle Center
05:59PM 47.5503 -113.3517 91° East 471 542 35,000  Level Salt Lake Center
06:00PM 47.5475 -113.1572 91° East 474 545 35,000  Level Salt Lake Center
06:01PM 47.5436 -112.9631 92° East 475 547 35,000  Level Salt Lake Center
06:02PM 47.5383 -112.7444 92° East 471 542 35,000  Level Salt Lake Center
06:03PM 47.5331 -112.5511 92° East 471 542 35,000  Level Salt Lake Center
06:04PM 47.5261 -112.3603 93° East 469 540 35,000  Level Salt Lake Center
06:05PM 47.5225 -112.1678 92° East 469 540 35,000  Level Salt Lake Center
06:06PM 47.5156 -111.9756 93° East 470 541 35,000  Level Salt Lake Center
06:07PM 47.5103 -111.7850 92° East 467 537 35,000  Level Salt Lake Center
06:08PM 47.5044 -111.5931 93° East 470 541 35,000  Level Salt Lake Center
06:09PM 47.4953 -111.3667 93° East 470 541 35,000  Level Salt Lake Center
06:10PM 47.4897 -111.1789 92° East 472 543 35,000  Level Salt Lake Center
06:11PM 47.4819 -110.9900 93° East 470 541 35,000  Level Salt Lake Center
06:12PM 47.4747 -110.8014 93° East 464 534 35,000  Level Salt Lake Center
06:13PM 47.4672 -110.6111 93° East 467 537 35,000  Level Salt Lake Center
06:14PM 47.4569 -110.3819 94° East 468 539 35,000  Level Salt Lake Center
06:15PM 47.4464 -110.1894 95° East 470 541 35,000  Level Salt Lake Center
06:16PM 47.4400 -109.9997 93° East 466 536 35,000  Level Salt Lake Center
06:17PM 47.4289 -109.8086 95° East 469 540 35,000  Level Salt Lake Center
06:18PM 47.4206 -109.6167 94° East 471 542 35,000  Level Salt Lake Center
06:19PM 47.4103 -109.4264 94° East 468 539 35,000  Level Salt Lake Center
06:20PM 47.4011 -109.2369 94° East 467 537 35,000  Level Salt Lake Center
06:21PM 47.3897 -109.0456 95° East 470 541 35,000  Level Salt Lake Center
06:23PM 47.3803 -108.8528 94° East 473 544 35,000  Level Salt Lake Center
06:24PM 47.3664 -108.6206 95° East 475 547 35,000  Level Salt Lake Center
06:25PM 47.3542 -108.4275 95° East 475 547 35,000  Level Salt Lake Center
06:26PM 47.3408 -108.2167 95° East 474 545 35,000  Level Salt Lake Center
06:27PM 47.3292 -108.0222 95° East 476 548 35,000  Level Salt Lake Center
06:28PM 47.3158 -107.8294 96° East 475 547 35,000  Level Salt Lake Center
06:29PM 47.3028 -107.6369 96° East 473 544 35,000  Level Salt Lake Center
06:30PM 47.2892 -107.4436 96° East 474 545 35,000  Level Salt Lake Center
06:31PM 47.2747 -107.2497 96° East 476 548 35,000  Level Salt Lake Center
06:32PM 47.2611 -107.0581 96° East 473 544 35,000  Level Salt Lake Center
06:33PM 47.2467 -106.8667 96° East 472 543 35,000  Level Salt Lake Center
06:34PM 47.2322 -106.6756 96° East 472 543 35,000  Level Salt Lake Center
06:35PM 47.2133 -106.4472 97° East 470 541 35,000  Level Salt Lake Center
06:36PM 47.1992 -106.2586 96° East 468 539 35,000  Level Salt Lake Center
06:37PM 47.1844 -106.0961 98° East 470 541 35,000  Level Salt Lake Center
06:38PM 47.1689 -105.9042 97° East 473 544 35,000  Level Salt Lake Center
06:39PM 47.1492 -105.6756 97° East 473 544 35,000  Level Salt Lake Center
06:40PM 47.1322 -105.4847 97° East 474 545 35,000  Level Salt Lake Center
06:41PM 47.1150 -105.2933 97° East 474 545 35,000  Level Salt Lake Center
06:42PM 47.0972 -105.1031 98° East 474 545 35,000  Level Salt Lake Center
06:43PM 47.0783 -104.9108 98° East 477 549 35,000  Level Salt Lake Center
06:44PM 47.0614 -104.7228 97° East 473 544 35,000  Level Salt Lake Center
06:45PM 47.0431 -104.5347 98° East 470 541 35,000  Level Salt Lake Center
06:46PM 47.0206 -104.3114 98° East 467 537 35,000  Level Salt Lake Center
06:47PM 47.0036 -104.1297 98° East 462 532 35,000  Level Salt Lake Center
06:48PM 46.9847 -103.9486 99° East 458 527 35,000  Level Salt Lake Center
06:49PM 46.9669 -103.7661 98° East 457 526 35,100 420 Climbing Salt Lake Center
06:50PM 46.9469 -103.5783 99° East 460 529 35,900 660 Climbing Salt Lake Center
06:51PM 46.9269 -103.3914 99° East 465 535 36,500 480 Climbing Salt Lake Center
06:52PM 46.9078 -103.2006 98° East 470 541 37,000 240 Climbing Salt Lake Center
06:53PM 46.8933 -103.0514 98° East 475 547 37,000  Level Minneapolis Center
06:54PM 46.8717 -102.8628 99° East 474 545 37,000  Level Minneapolis Center
06:55PM 46.8372 -102.6811 105° East 472 543 37,000  Level Minneapolis Center
06:56PM 46.7725 -102.4769 115° Southeast 467 537 37,000  Level Minneapolis Center
06:57PM 46.7214 -102.3061 114° Southeast 463 533 37,000  Level Minneapolis Center
06:58PM 46.6692 -102.1364 114° Southeast 462 532 37,000  Level Minneapolis Center
06:59PM 46.6164 -101.9681 114° Southeast 460 529 37,000  Level Minneapolis Center
07:00PM 46.5639 -101.7956 114° Southeast 465 535 37,000  Level Minneapolis Center
07:01PM 46.5042 -101.6133 115° Southeast 462 532 37,000  Level Minneapolis Center
07:02PM 46.4497 -101.4417 115° Southeast 465 535 37,000  Level Minneapolis Center
07:03PM 46.3858 -101.2381 114° Southeast 463 533 37,000  Level Minneapolis Center
07:04PM 46.3425 -101.1003 114° Southeast 466 536 37,000  Level Minneapolis Center
07:05PM 46.2775 -100.8967 115° Southeast 466 536 37,000  Level Minneapolis Center
07:06PM 46.2222 -100.7289 115° Southeast 464 534 37,000  Level Minneapolis Center
07:07PM 46.1672 -100.5622 115° Southeast 462 532 37,000  Level Minneapolis Center
07:08PM 46.1136 -100.3950 115° Southeast 459 528 37,000  Level Minneapolis Center
07:10PM 46.0472 -100.1967 116° Southeast 458 527 37,000  Level Minneapolis Center
07:11PM 45.9936 -100.0339 115° Southeast 451 519 37,000  Level Minneapolis Center
07:12PM 45.9156 -99.8044 116° Southeast 454 522 37,000  Level Minneapolis Center
07:13PM 45.8597 -99.6372 116° Southeast 459 528 37,000  Level Minneapolis Center
07:14PM 45.8042 -99.4733 116° Southeast 458 527 37,000  Level Minneapolis Center
07:15PM 45.7478 -99.3100 116° Southeast 456 525 37,000  Level Minneapolis Center
07:16PM 45.6922 -99.1472 116° Southeast 455 524 37,000  Level Minneapolis Center
07:17PM 45.6356 -98.9847 116° Southeast 455 524 37,000  Level Minneapolis Center
07:18PM 45.5789 -98.8219 116° Southeast 456 525 37,000  Level Minneapolis Center
07:19PM 45.5214 -98.6578 117° Southeast 458 527 37,000  Level Minneapolis Center
07:20PM 45.4628 -98.4942 117° Southeast 461 531 37,000  Level Minneapolis Center
07:21PM 45.3983 -98.2939 115° Southeast 463 533 37,000  Level Minneapolis Center
07:22PM 45.3500 -98.1214 112° Southeast 468 539 37,000  Level Minneapolis Center
07:23PM 45.3028 -97.9542 112° Southeast 467 537 37,000  Level Minneapolis Center
07:24PM 45.2553 -97.7842 112° Southeast 465 535 37,000  Level Minneapolis Center
07:25PM 45.2081 -97.6142 111° Southeast 464 534 37,000  Level Minneapolis Center
07:26PM 45.1597 -97.4456 112° Southeast 462 532 37,000  Level Minneapolis Center
07:27PM 45.1111 -97.2767 112° Southeast 463 533 37,000  Level Minneapolis Center
07:28PM 45.0531 -97.0756 112° Southeast 462 532 37,000  Level Minneapolis Center
07:29PM 45.0033 -96.9067 113° Southeast 464 534 37,000  Level Minneapolis Center
07:30PM 44.9542 -96.7367 112° Southeast 467 537 37,000  Level Minneapolis Center
07:31PM 44.9044 -96.5664 112° Southeast 468 539 37,000  Level Minneapolis Center
07:32PM 44.8536 -96.3947 113° Southeast 473 544 37,000  Level Minneapolis Center
07:33PM 44.8019 -96.2222 113° Southeast 476 548 37,000  Level Minneapolis Center
07:35PM 44.7517 -96.0506 112° Southeast 472 543 37,000  Level Minneapolis Center
07:36PM 44.6986 -95.8781 113° Southeast 474 545 37,000  Level Minneapolis Center
07:37PM 44.6469 -95.7072 113° Southeast 474 545 37,000  Level Minneapolis Center
07:38PM 44.5942 -95.5358 113° Southeast 476 548 37,000  Level Minneapolis Center
07:39PM 44.5411 -95.3644 113° Southeast 478 550 37,000  Level Minneapolis Center
07:40PM 44.4764 -95.1586 114° Southeast 479 551 37,000  Level Minneapolis Center
07:41PM 44.4478 -94.9808 103° East 470 541 37,000  Level Minneapolis Center
07:42PM 44.4253 -94.8014 100° East 468 539 37,000  Level Minneapolis Center
07:43PM 44.3997 -94.6219 101° East 471 542 37,000  Level Minneapolis Center
07:44PM 44.3694 -94.4267 102° East 474 545 37,000  Level Minneapolis Center
07:45PM 44.3444 -94.2481 101° East 471 542 37,000  Level Minneapolis Center
07:46PM 44.3181 -94.0681 102° East 475 547 37,000  Level Minneapolis Center
07:47PM 44.2917 -93.8875 101° East 477 549 37,000  Level Minneapolis Center
07:48PM 44.2658 -93.7075 101° East 477 549 37,000  Level Minneapolis Center
07:49PM 44.2392 -93.5286 102° East 476 548 37,000  Level Minneapolis Center
07:50PM 44.2125 -93.3500 102° East 475 547 37,000  Level Minneapolis Center
07:51PM 44.1856 -93.1722 102° East 475 547 37,000  Level Minneapolis Center
07:52PM 44.1472 -92.9236 102° East 474 545 37,000  Level Minneapolis Center
07:53PM 44.1192 -92.7453 102° East 475 547 37,000  Level Minneapolis Center
07:54PM 44.0903 -92.5678 103° East 475 547 37,000  Level Minneapolis Center
07:55PM 44.0619 -92.3878 102° East 478 550 37,000  Level Minneapolis Center
07:56PM 44.0342 -92.2081 102° East 478 550 37,000  Level Minneapolis Center
07:57PM 44.0047 -92.0281 103° East 479 551 37,000  Level Minneapolis Center
07:58PM 43.9756 -91.8494 103° East 478 550 37,000  Level Minneapolis Center
07:59PM 43.9453 -91.6647 103° East 478 550 37,000  Level Minneapolis Center
08:00PM 43.9161 -91.4856 103° East 479 551 37,000  Level Minneapolis Center
08:01PM 43.8814 -91.3083 105° East 479 551 37,000  Level Minneapolis Center
08:02PM 43.8372 -91.0989 106° East 476 548 37,000  Level Minneapolis Center
08:03PM 43.8003 -90.9211 106° East 481 554 37,000  Level Minneapolis Center
08:05PM 43.7633 -90.7439 106° East 482 555 37,000  Level Minneapolis Center
08:05PM 43.7228 -90.5708 108° East 479 551 37,000  Level Chicago Center
08:06PM 43.6806 -90.3958 108° East 481 554 37,000  Level Chicago Center
08:07PM 43.6353 -90.2017 108° East 475 547 37,000  Level Chicago Center
08:08PM 43.5928 -90.0286 109° East 476 548 37,000  Level Chicago Center
08:10PM 43.5514 -89.8561 108° East 475 547 37,000  Level Chicago Center
08:11PM 43.5081 -89.6842 109° East 474 545 37,000  Level Chicago Center
08:12PM 43.4594 -89.4850 109° East 470 541 37,000  Level Chicago Center
08:13PM 43.4172 -89.3139 109° East 472 543 37,000  Level Chicago Center
08:14PM 43.3758 -89.1444 109° East 469 540 37,000  Level Chicago Center
08:15PM 43.3336 -88.9778 109° East 465 535 37,000  Level Chicago Center
08:16PM 43.2911 -88.8131 109° East 460 529 37,000  Level Chicago Center
08:17PM 43.2478 -88.6492 110° East 463 533 37,000  Level Chicago Center
08:18PM 43.1986 -88.4542 109° East 470 541 37,000  Level Chicago Center
08:19PM 43.1567 -88.2883 109° East 467 537 37,000  Level Chicago Center
08:20PM 43.1147 -88.1228 109° East 463 533 37,000  Level Chicago Center
08:21PM 43.0714 -87.9567 110° East 465 535 37,000  Level Chicago Center
08:22PM 43.0275 -87.7917 110° East 465 535 37,000  Level Chicago Center
08:23PM 42.9833 -87.6261 110° East 463 533 37,000  Level Chicago Center
08:24PM 42.9392 -87.4622 110° East 461 531 37,000  Level Chicago Center
08:25PM 42.8961 -87.2972 110° East 459 528 37,000  Level Chicago Center
08:26PM 42.8514 -87.1347 111° Southeast 459 528 37,000  Level Chicago Center
08:27PM 42.7981 -86.9411 111° Southeast 459 528 37,000  Level Chicago Center
08:28PM 42.7528 -86.7778 111° Southeast 463 533 37,000  Level Chicago Center
08:29PM 42.7078 -86.6161 111° Southeast 460 529 37,000  Level Chicago Center
08:30PM 42.6622 -86.4536 111° Southeast 462 532 37,000  Level Chicago Center
08:31PM 42.6167 -86.2914 111° Southeast 465 535 37,000  Level Chicago Center
08:32PM 42.5711 -86.1306 111° Southeast 463 533 37,000  Level Chicago Center
08:33PM 42.5253 -85.9700 111° Southeast 462 532 37,000  Level Chicago Center
08:34PM 42.4714 -85.7789 111° Southeast 458 527 37,000  Level Chicago Center
08:35PM 42.4264 -85.6192 111° Southeast 457 526 37,000  Level Chicago Center
08:36PM 42.3803 -85.4581 111° Southeast 461 531 37,000  Level Chicago Center
08:37PM 42.3339 -85.2981 111° Southeast 461 531 37,000  Level Chicago Center
08:38PM 42.2872 -85.1400 112° Southeast 457 526 37,000  Level Chicago Center
08:39PM 42.2408 -84.9828 112° Southeast 455 524 37,000  Level Chicago Center
08:40PM 42.1958 -84.8258 111° Southeast 450 518 37,000  Level Chicago Center
08:41PM 42.1481 -84.6686 112° Southeast 453 521 37,000  Level Chicago Center
08:42PM 42.0911 -84.4828 112° Southeast 451 519 37,000  Level Chicago Center
08:43PM 42.0561 -84.3625 111° Southeast 453 521 37,000  Level Cleveland Center
08:44PM 42.0108 -84.2214 113° Southeast 457 526 37,000  Level Cleveland Center
08:45PM 41.9628 -84.0644 112° Southeast 457 526 37,000  Level Cleveland Center
08:46PM 41.9042 -83.8783 113° Southeast 455 524 37,000  Level Cleveland Center
08:47PM 41.8569 -83.7267 113° Southeast 446 513 37,000  Level Cleveland Center
08:48PM 41.7994 -83.5833 118° Southeast 446 513 37,000  Level Cleveland Center
08:49PM 41.7203 -83.4553 130° Southeast 449 517 37,000  Level Cleveland Center
08:50PM 41.6403 -83.3281 130° Southeast 450 518 37,000  Level Cleveland Center
08:51PM 41.5611 -83.2017 130° Southeast 447 514 37,000  Level Cleveland Center
08:52PM 41.4783 -83.0731 131° Southeast 447 514 37,000  Level Cleveland Center
08:53PM 41.3969 -82.9458 130° Southeast 448 516 37,000  Level Cleveland Center
08:54PM 41.3156 -82.8186 130° Southeast 447 514 37,000  Level Cleveland Center
08:55PM 41.2344 -82.6914 130° Southeast 450 518 37,000  Level Cleveland Center
08:56PM 41.1397 -82.5461 131° Southeast 445 512 37,000  Level Cleveland Center
08:57PM 41.0592 -82.4208 130° Southeast 445 512 37,000  Level Cleveland Center
08:58PM 40.9778 -82.2975 131° Southeast 443 510 37,000  Level Cleveland Center
08:59PM 40.8967 -82.1731 131° Southeast 444 511 37,000  Level Cleveland Center
09:00PM 40.8150 -82.0483 131° Southeast 446 513 37,000  Level Cleveland Center
09:01PM 40.7311 -81.9219 131° Southeast 453 521 37,000  Level Cleveland Center
09:02PM 40.6483 -81.7972 131° Southeast 451 519 37,000  Level Cleveland Center
09:03PM 40.5636 -81.6706 131° Southeast 457 526 37,000  Level Cleveland Center
09:04PM 40.4789 -81.5431 131° Southeast 459 528 37,000 -60 Level Cleveland Center
09:05PM 40.3953 -81.4175 131° Southeast 456 525 36,900 -480 Descending Cleveland Center
09:06PM 40.3169 -81.2914 129° Southeast 453 521 36,100 -660 Descending Cleveland Center
09:07PM 40.2489 -81.1561 123° Southeast 449 517 35,600 -600 Descending Cleveland Center
09:08PM 40.1825 -81.0217 123° Southeast 443 510 35,000 -300 Descending Cleveland Center
09:09PM 40.1142 -80.8883 124° Southeast 444 511 35,000  Level Cleveland Center
09:11PM 40.0319 -80.7278 124° Southeast 448 516 35,000  Level Cleveland Center
09:12PM 39.9628 -80.5939 124° Southeast 448 516 35,000  Level Cleveland Center
09:13PM 39.8933 -80.4578 124° Southeast 453 521 35,000  Level Cleveland Center
09:14PM 39.8242 -80.3233 124° Southeast 452 520 35,000  Level Cleveland Center
09:15PM 39.7536 -80.1908 125° Southeast 451 519 35,000  Level Cleveland Center
09:16PM 39.6833 -80.0558 124° Southeast 454 522 35,000 -60 Level Cleveland Center
09:17PM 39.6131 -79.9239 125° Southeast 447 514 34,900 -1,140 Descending Cleveland Center
09:17PM 39.5564 -79.8147 124° Southeast 456 525 33,000 -2,580 Descending Washington Center
09:18PM 39.4839 -79.6761 124° Southeast 456 525 30,300 -1,980 Descending Washington Center
09:19PM 39.4306 -79.5333 116° Southeast 449 517 29,100 -1,140 Descending Washington Center
09:20PM 39.3978 -79.3811 106° East 434 499 28,100 -960 Descending Washington Center
09:21PM 39.3608 -79.2289 107° East 440 506 27,200 -960 Descending Washington Center
09:22PM 39.3297 -79.0825 105° East 435 501 26,200 -1,080 Descending Washington Center
09:23PM 39.2964 -78.9386 107° East 424 488 25,100 -1,440 Descending Washington Center
09:24PM 39.2625 -78.8003 108° East 419 482 23,300 -1,920 Descending Washington Center
09:25PM 39.2325 -78.6678 106° East 404 465 21,400 -1,920 Descending Washington Center
09:26PM 39.2025 -78.5353 106° East 387 445 19,500 -1,680 Descending Washington Center
09:27PM 39.1722 -78.4108 107° East 375 432 18,100 -1,260 Descending Washington Center
09:28PM 39.1439 -78.2839 106° East 368 423 17,000 -720 Descending Washington Center
09:29PM 39.1111 -78.1622 109° East 368 423 16,700 -1,140 Descending Washington Center
09:30PM 39.0803 -78.0383 108° East 368 423 14,800 -1,800 Descending Washington Center
09:31PM 39.0494 -77.9197 108° East 368 423 13,200 -1,320 Descending Washington Center
09:32PM 39.0222 -77.8119 108° East 333 383 12,200 -1,320 Descending Washington Center
09:33PM 38.9950 -77.7017 108° East 311 358 10,600 -1,140 Descending Washington Center
09:34PM 38.9672 -77.6153 112° Southeast 293 337 10,000 -840 Descending Washington Center
09:35PM 38.9333 -77.5211 115° Southeast 279 321 9,000 -1,200 Descending Washington Center
09:36PM 38.9000 -77.4333 116° Southeast 267 307 7,700 -1,260 Descending Potomac TRACON
09:37PM 38.8667 -77.3333 113° Southeast 267 307 6,400 -1,200 Descending Potomac TRACON
09:38PM 38.8167 -77.2667 134° Southeast 268 308 5,200 -960 Descending Potomac TRACON
09:40PM 38.7667 -77.1833 128° Southeast 245 282 4,300 -900 Descending Potomac TRACON
09:40PM 38.7333 -77.1333 131° Southeast 224 258 3,500 -900 Descending Potomac TRACON
09:42PM 38.7333 -77.0667 90° East 177 204 2,600 -960 Descending Potomac TRACON
09:43PM 38.7667 -77.0333 38° Northeast 161 185 1,500 -960 Descending Potomac TRACON
09:43PM 38.8000 -77.0333 360° North 146 168 800 -900 Descending Potomac TRACON
09:45PM 38.8500 -77.0333 North  Level FlightAware Approximate
09:52PM 38.8519 -77.0377 North  Level Estimated
09:53PM 38.8500 -77.0333 North  Level FlightAware Approximate
09:54PM 38.8519 -77.0377 North  Level Estimated